Carriere, Mississippi
Current Conditions -  °F | °C
As of 11:53 AM on Saturday 25 Oct 2014 (Local Time) from KASD Reporting Station
Clear Clear  
Wind Chill: 75°   Ceiling: Unl
Heat Index: 75°   Visibility: 10mi
Dew Point: 53°   Wind: 7mph
Humidity: 46%   Direction: 30°NNE
Pressure: 30.14"   Gusts: NA
Location:  30.62°N, 89.65°W
Report Text: KASD 251653Z AUTO 03006KT 10SM CLR 24/12 A3014 RMK AO2 SLP206 T02390117
Loading
Personal Weather Stations






























Interactive Weather Map
Tropical Storm Tracking
New forecast layout! Learn more

10-Day Weather Forecast

Advertisements
Track Severe Weather on mobile